Time;durP1;ratioP1;P1;durP2;ratioP2;P2;SDS_P1;SDS_P2;PMS_P1;PMS_P2;Temp;Humidity;BMP_temperature;BMP_pressure;BME280_temperature;BME280_humidity;BME280_pressure;Samples;Min_cycle;Max_cycle;Signal;HPM_P1;HPM_P2
2024/01/06 00:00:45;;;;;;;24.02;14.10;;;;;;;5.64;100.00;100050.75;5032468;28;20490;-79
2024/01/06 00:03:11;;;;;;;24.48;14.02;;;;;;;5.62;100.00;100055.44;5014677;28;20060;-79
2024/01/06 00:05:36;;;;;;;29.10;15.10;;;;;;;5.57;100.00;100050.75;5032265;28;20057;-80
2024/01/06 00:08:02;;;;;;;24.05;13.35;;;;;;;5.54;100.00;100063.59;5032384;28;20112;-78
2024/01/06 00:10:27;;;;;;;27.15;15.43;;;;;;;5.50;100.00;100068.47;5032587;28;20034;-78
2024/01/06 00:12:52;;;;;;;24.85;15.10;;;;;;;5.52;100.00;100071.75;5014714;28;20045;-78
2024/01/06 00:15:18;;;;;;;27.50;15.10;;;;;;;5.47;100.00;100073.34;5032213;28;20026;-79
2024/01/06 00:17:43;;;;;;;25.00;14.40;;;;;;;5.42;100.00;100087.19;5032216;28;20025;-80
2024/01/06 00:20:09;;;;;;;25.08;14.13;;;;;;;5.39;100.00;100078.81;5031882;28;20141;-79
2024/01/06 00:22:35;;;;;;;28.02;14.30;;;;;;;5.41;100.00;100093.50;5031823;28;20041;-80
2024/01/06 00:25:00;;;;;;;25.40;14.95;;;;;;;5.32;100.00;100080.63;5014209;28;20120;-78
2024/01/06 00:27:26;;;;;;;25.90;14.13;;;;;;;5.39;100.00;100097.38;5031800;28;20459;-80
2024/01/06 00:29:51;;;;;;;26.10;14.45;;;;;;;5.36;100.00;100103.06;5014131;28;20068;-77
2024/01/06 00:32:16;;;;;;;28.70;15.77;;;;;;;5.34;100.00;100102.47;5032020;28;20420;-79
2024/01/06 00:34:42;;;;;;;27.58;15.63;;;;;;;5.25;100.00;100096.53;5031677;28;20037;-79
2024/01/06 00:37:07;;;;;;;31.35;16.90;;;;;;;5.25;100.00;100096.53;5031675;28;20493;-79
2024/01/06 00:39:32;;;;;;;28.67;15.93;;;;;;;5.26;100.00;100106.09;5013698;28;20466;-79
2024/01/06 00:41:58;;;;;;;29.35;15.18;;;;;;;5.22;100.00;100099.56;5031723;28;20152;-78
2024/01/06 00:44:23;;;;;;;30.73;16.23;;;;;;;5.22;100.00;100095.09;5031952;28;20096;-79
2024/01/06 00:46:48;;;;;;;32.40;15.40;;;;;;;5.20;100.00;100105.06;5013855;28;20037;-79
2024/01/06 00:49:14;;;;;;;34.13;17.27;;;;;;;5.18;100.00;100106.25;5031560;28;20033;-79
2024/01/06 00:51:39;;;;;;;30.92;16.92;;;;;;;5.17;100.00;100099.31;5031490;28;20036;-79
2024/01/06 00:54:04;;;;;;;31.35;16.58;;;;;;;5.16;100.00;100103.81;5013840;28;20104;-79
2024/01/06 00:56:30;;;;;;;31.52;16.30;;;;;;;5.17;100.00;100109.91;5031596;28;20034;-78
2024/01/06 00:58:55;;;;;;;29.65;15.32;;;;;;;5.20;100.00;100109.53;5031240;28;20417;-80
2024/01/06 01:01:21;;;;;;;27.77;14.65;;;;;;;5.18;100.00;100117.66;5031384;28;20057;-79
2024/01/06 01:03:46;;;;;;;31.13;14.93;;;;;;;5.11;100.00;100108.06;5013528;28;20057;-81
2024/01/06 01:06:12;;;;;;;29.67;16.70;;;;;;;5.11;100.00;100116.00;5031561;28;20030;-80
2024/01/06 01:08:37;;;;;;;32.22;16.17;;;;;;;5.05;100.00;100106.19;5015801;28;20497;-80
2024/01/06 01:11:03;;;;;;;30.85;15.35;;;;;;;5.08;100.00;100117.22;5017875;28;20036;-79
2024/01/06 01:13:28;;;;;;;29.35;15.40;;;;;;;5.11;100.00;100123.97;5035293;28;20474;-79
2024/01/06 01:15:53;;;;;;;28.17;14.57;;;;;;;5.02;100.00;100111.91;5016922;28;20029;-79
2024/01/06 01:18:19;;;;;;;29.00;15.23;;;;;;;5.05;100.00;100124.75;5034560;28;20064;-80
2024/01/06 01:20:44;;;;;;;29.63;15.23;;;;;;;5.01;100.00;100116.38;5034952;28;20026;-79
2024/01/06 01:23:09;;;;;;;27.45;15.18;;;;;;;5.07;100.00;100131.47;5034683;28;20036;-79
2024/01/06 01:25:35;;;;;;;30.33;15.85;;;;;;;5.06;100.00;100137.78;5016956;28;20075;-79
2024/01/06 01:28:00;;;;;;;30.88;15.63;;;;;;;5.03;100.00;100129.44;5016892;28;20037;-80
2024/01/06 01:30:26;;;;;;;28.73;14.75;;;;;;;5.03;100.00;100135.53;5034933;28;20053;-80
2024/01/06 01:32:52;;;;;;;29.10;15.10;;;;;;;5.01;100.00;100131.47;5017071;28;20536;-80
2024/01/06 01:35:17;;;;;;;27.05;14.60;;;;;;;5.02;100.00;100139.22;5034591;28;20025;-80
2024/01/06 01:37:43;;;;;;;28.27;14.32;;;;;;;5.04;100.00;100153.06;5034562;28;20087;-80
2024/01/06 01:40:09;;;;;;;27.70;14.73;;;;;;;4.96;100.00;100151.41;5034475;28;20160;-80
2024/01/06 01:42:34;;;;;;;27.85;15.48;;;;;;;4.99;100.00;100155.50;5016618;28;20116;-80
2024/01/06 01:45:00;;;;;;;25.13;13.70;;;;;;;4.96;100.00;100156.72;5034513;28;20030;-78
2024/01/06 01:47:26;;;;;;;26.58;14.55;;;;;;;5.03;100.00;100166.53;5034301;28;20367;-80
2024/01/06 01:49:53;;;;;;;23.00;11.85;;;;;;;5.00;100.00;100175.69;5034235;28;20129;-79
2024/01/06 01:52:18;;;;;;;22.40;12.68;;;;;;;4.98;100.00;100180.34;5034307;28;20061;-78
2024/01/06 01:54:46;;;;;;;26.00;13.57;;;;;;;4.95;100.00;100176.25;5034233;28;20095;-79
2024/01/06 01:57:13;;;;;;;20.73;12.02;;;;;;;4.92;100.00;100176.66;5034237;28;20032;-80
2024/01/06 01:59:39;;;;;;;21.95;11.98;;;;;;;4.88;100.00;100177.22;5033999;28;20477;-78
2024/01/06 02:02:05;;;;;;;24.30;12.75;;;;;;;4.88;100.00;100185.16;5034484;28;20029;-79
2024/01/06 02:04:30;;;;;;;24.85;13.40;;;;;;;4.86;100.00;100187.19;5034171;28;20474;-78
2024/01/06 02:06:55;;;;;;;24.52;13.10;;;;;;;4.89;100.00;100190.25;5034094;28;20034;-79
2024/01/06 02:09:23;;;;;;;22.75;13.27;;;;;;;4.95;100.00;100188.69;5034296;28;20038;-79
2024/01/06 02:11:48;;;;;;;23.70;13.75;;;;;;;4.88;100.00;100172.72;5034056;28;20039;-79
2024/01/06 02:14:13;;;;;;;21.70;12.60;;;;;;;4.87;100.00;100188.81;5034056;28;20029;-79
2024/01/06 02:16:39;;;;;;;26.33;14.35;;;;;;;4.82;100.00;100191.22;5034052;28;20030;-79
2024/01/06 02:19:07;;;;;;;22.80;12.50;;;;;;;4.83;100.00;100198.16;5032840;28;20492;-79
2024/01/06 02:21:35;;;;;;;18.00;10.50;;;;;;;4.76;100.00;100194.66;5033765;28;20033;-78
2024/01/06 02:24:01;;;;;;;19.60;11.48;;;;;;;4.65;100.00;100194.19;5033714;28;20032;-78
2024/01/06 02:26:26;;;;;;;19.95;11.73;;;;;;;4.71;100.00;100207.66;5033838;28;20113;-80
2024/01/06 02:28:51;;;;;;;18.20;10.70;;;;;;;4.61;100.00;100200.84;5033925;28;20033;-78
2024/01/06 02:31:17;;;;;;;18.50;10.27;;;;;;;4.65;100.00;100207.41;5015936;28;20063;-77
2024/01/06 02:33:42;;;;;;;16.83;9.80;;;;;;;4.59;100.00;100212.63;5015954;28;20109;-77
2024/01/06 02:36:07;;;;;;;17.17;10.20;;;;;;;4.57;100.00;100217.28;5033545;28;20470;-77
2024/01/06 02:38:33;;;;;;;16.75;9.93;;;;;;;4.55;100.00;100224.59;5015790;28;20029;-78
2024/01/06 02:40:58;;;;;;;15.85;8.90;;;;;;;4.53;100.00;100227.44;5033805;28;20084;-78
2024/01/06 02:43:23;;;;;;;16.88;9.60;;;;;;;4.56;100.00;100239.47;5016025;28;20124;-77
2024/01/06 02:45:49;;;;;;;16.58;9.38;;;;;;;4.43;100.00;100228.78;5015673;28;20128;-78
2024/01/06 02:48:16;;;;;;;16.45;9.35;;;;;;;4.45;100.00;100234.72;5015828;28;20061;-77
2024/01/06 02:50:41;;;;;;;14.80;9.43;;;;;;;4.37;100.00;100235.66;5015585;28;20021;-78
2024/01/06 02:53:06;;;;;;;12.90;8.90;;;;;;;4.41;100.00;100244.84;5015826;28;20025;-77
2024/01/06 02:55:32;;;;;;;15.55;9.80;;;;;;;4.33;100.00;100244.97;5015605;28;20084;-77
2024/01/06 02:57:57;;;;;;;13.32;7.97;;;;;;;4.29;100.00;100249.00;5033188;28;20045;-77
2024/01/06 03:00:22;;;;;;;17.10;10.00;;;;;;;4.23;100.00;100263.78;5033222;28;20033;-78
2024/01/06 03:02:48;;;;;;;15.20;8.80;;;;;;;4.17;100.00;100266.38;5033173;28;20029;-78
2024/01/06 03:05:13;;;;;;;15.07;8.60;;;;;;;4.16;100.00;100275.31;5015692;28;20026;-76
2024/01/06 03:07:38;;;;;;;16.63;9.32;;;;;;;4.10;100.00;100289.28;5015589;28;20029;-77
2024/01/06 03:10:04;;;;;;;13.88;7.43;;;;;;;4.07;100.00;100279.09;5033095;28;20029;-78
2024/01/06 03:12:29;;;;;;;13.07;8.40;;;;;;;4.03;100.00;100297.94;5033502;28;20034;-77
2024/01/06 03:14:55;;;;;;;13.82;7.68;;;;;;;3.99;100.00;100290.56;5015325;28;20025;-77
2024/01/06 03:17:20;;;;;;;12.30;7.75;;;;;;;3.95;100.00;100287.47;5033096;28;20116;-77
2024/01/06 03:19:45;;;;;;;11.68;7.00;;;;;;;3.98;100.00;100308.28;5014997;28;20029;-77
2024/01/06 03:22:11;;;;;;;11.15;7.53;;;;;;;3.90;100.00;100302.25;5015358;28;20478;-78
2024/01/06 03:24:36;;;;;;;10.82;7.10;;;;;;;3.88;100.00;100299.00;5032747;28;20026;-78
2024/01/06 03:27:02;;;;;;;9.32;6.88;;;;;;;3.91;100.00;100307.38;5015145;28;20031;-79
2024/01/06 03:29:27;;;;;;;8.60;6.35;;;;;;;3.85;100.00;100310.75;5032780;28;20040;-78
2024/01/06 03:31:53;;;;;;;11.55;6.43;;;;;;;3.84;100.00;100316.22;5014591;28;20150;-78
2024/01/06 03:34:18;;;;;;;11.10;7.63;;;;;;;3.88;100.00;100310.38;5014972;28;20474;-78
2024/01/06 03:36:43;;;;;;;10.40;6.78;;;;;;;3.81;100.00;100309.47;5014971;28;20075;-77
2024/01/06 03:39:10;;;;;;;9.68;6.57;;;;;;;3.89;100.00;100332.34;5032608;28;20134;-78
2024/01/06 03:41:36;;;;;;;7.65;5.55;;;;;;;3.84;100.00;100330.28;5015156;28;20044;-77
2024/01/06 03:44:01;;;;;;;8.63;6.43;;;;;;;3.83;100.00;100330.44;5032722;28;20104;-77
2024/01/06 03:46:27;;;;;;;9.43;6.60;;;;;;;3.84;100.00;100346.13;5032529;28;20029;-77
2024/01/06 03:48:52;;;;;;;10.65;7.03;;;;;;;3.83;100.00;100339.22;5014727;28;20474;-77
2024/01/06 03:51:18;;;;;;;11.35;8.13;;;;;;;3.82;100.00;100342.84;5032277;28;20289;-78
2024/01/06 03:53:43;;;;;;;11.68;7.65;;;;;;;3.80;100.00;100344.88;5032527;28;20049;-78
2024/01/06 03:56:09;;;;;;;10.90;7.80;;;;;;;3.78;100.00;100349.50;5014627;28;20108;-77
2024/01/06 03:58:34;;;;;;;11.07;8.18;;;;;;;3.72;100.00;100343.09;5014589;28;20506;-76
2024/01/06 04:01:00;;;;;;;12.32;8.75;;;;;;;3.74;100.00;100350.84;5032389;28;20037;-77
2024/01/06 04:03:26;;;;;;;14.00;8.50;;;;;;;3.71;100.00;100343.28;5032528;28;20029;-77
2024/01/06 04:05:51;;;;;;;14.48;9.73;;;;;;;3.72;100.00;100342.28;5014590;28;20072;-79
2024/01/06 04:08:17;;;;;;;11.43;7.95;;;;;;;3.73;100.00;100354.50;5032231;28;20052;-78
2024/01/06 04:10:43;;;;;;;13.73;9.07;;;;;;;3.62;100.00;100341.75;5032247;28;20104;-77
2024/01/06 04:13:08;;;;;;;13.20;8.73;;;;;;;3.59;100.00;100350.84;5032121;28;20109;-78
2024/01/06 04:15:34;;;;;;;13.23;8.82;;;;;;;3.64;100.00;100355.59;5032200;28;20538;-78
2024/01/06 04:18:03;;;;;;;12.90;8.23;;;;;;;3.57;100.00;100352.88;5032084;28;20425;-79
2024/01/06 04:20:29;;;;;;;10.98;7.85;;;;;;;3.63;100.00;100359.25;5032069;28;20540;-79
2024/01/06 04:22:54;;;;;;;15.45;8.10;;;;;;;3.63;100.00;100356.59;5032000;28;20034;-78
2024/01/06 04:25:19;;;;;;;11.82;7.93;;;;;;;3.54;100.00;100362.97;5031910;28;20417;-78
2024/01/06 04:27:46;;;;;;;11.35;7.68;;;;;;;3.50;100.00;100354.59;5032012;28;20386;-78
2024/01/06 04:30:12;;;;;;;11.65;8.02;;;;;;;3.54;100.00;100365.63;5032029;28;20033;-78
2024/01/06 04:32:38;;;;;;;14.02;8.80;;;;;;;3.53;100.00;100362.16;5014250;28;20065;-77
2024/01/06 04:35:04;;;;;;;12.68;8.23;;;;;;;3.51;100.00;100358.88;5014313;28;20104;-77
2024/01/06 04:37:29;;;;;;;12.20;8.48;;;;;;;3.42;100.00;100352.81;5031802;28;20125;-78
2024/01/06 04:39:54;;;;;;;12.82;8.73;;;;;;;3.55;100.00;100376.00;5031748;28;20037;-77
2024/01/06 04:42:22;;;;;;;12.18;7.53;;;;;;;3.56;100.00;100375.00;5030802;28;20042;-78
2024/01/06 04:44:47;;;;;;;13.27;7.35;;;;;;;3.57;100.00;100381.13;5031722;28;20044;-77
2024/01/06 04:47:13;;;;;;;14.52;8.30;;;;;;;3.60;100.00;100380.75;5031725;28;20026;-78
2024/01/06 04:49:38;;;;;;;12.82;7.60;;;;;;;3.54;100.00;100377.00;5031766;28;20069;-77
2024/01/06 04:52:04;;;;;;;12.93;7.57;;;;;;;3.61;100.00;100385.03;5031549;28;20034;-77
2024/01/06 04:54:29;;;;;;;12.88;7.22;;;;;;;3.55;100.00;100383.94;5031552;28;20112;-78
2024/01/06 04:56:55;;;;;;;11.52;7.00;;;;;;;3.58;100.00;100399.44;5031460;28;20470;-78
2024/01/06 04:59:21;;;;;;;10.05;7.20;;;;;;;3.53;100.00;100387.78;5013737;28;20025;-78
2024/01/06 05:01:46;;;;;;;12.38;7.07;;;;;;;3.56;100.00;100397.97;5031611;28;20080;-79
2024/01/06 05:04:12;;;;;;;9.90;6.90;;;;;;;3.56;100.00;100400.63;5031796;28;20451;-78
2024/01/06 05:06:37;;;;;;;10.50;7.05;;;;;;;3.52;100.00;100401.97;5013779;28;20034;-75
2024/01/06 05:09:02;;;;;;;9.95;6.55;;;;;;;3.54;100.00;100407.91;5013641;28;20025;-78
2024/01/06 05:11:28;;;;;;;8.75;5.75;;;;;;;3.51;100.00;100395.06;5013709;28;20389;-77
2024/01/06 05:13:53;;;;;;;8.57;5.70;;;;;;;3.48;100.00;100409.47;5031424;28;20482;-77
2024/01/06 05:16:18;;;;;;;7.65;5.22;;;;;;;3.50;100.00;100414.56;5031361;28;20037;-77
2024/01/06 05:18:44;;;;;;;7.47;4.45;;;;;;;3.53;100.00;100414.19;5013506;28;20032;-77
2024/01/06 05:21:09;;;;;;;7.53;5.30;;;;;;;3.46;100.00;100407.97;5031197;28;20029;-78
2024/01/06 05:23:34;;;;;;;7.40;4.78;;;;;;;3.51;100.00;100418.84;5013384;28;20030;-78
2024/01/06 05:26:00;;;;;;;6.05;4.43;;;;;;;3.49;100.00;100416.38;5031053;28;20037;-78
2024/01/06 05:28:25;;;;;;;7.28;5.25;;;;;;;3.45;100.00;100416.88;5031083;28;20021;-77
2024/01/06 05:30:50;;;;;;;8.60;5.65;;;;;;;3.47;100.00;100425.47;5031140;28;20509;-78
2024/01/06 05:33:16;;;;;;;8.75;5.05;;;;;;;3.44;100.00;100431.91;5013456;28;20056;-77
2024/01/06 05:35:41;;;;;;;8.43;5.97;;;;;;;3.46;100.00;100432.56;5013398;28;20045;-79
2024/01/06 05:38:07;;;;;;;7.53;5.15;;;;;;;3.40;100.00;100428.81;5030975;28;20057;-79
2024/01/06 05:40:32;;;;;;;8.15;5.47;;;;;;;3.41;100.00;100435.75;5031137;28;20043;-78
2024/01/06 05:42:57;;;;;;;6.90;5.00;;;;;;;3.46;100.00;100450.25;5013223;28;20029;-78
2024/01/06 05:45:23;;;;;;;10.38;5.45;;;;;;;3.40;100.00;100444.69;5013209;28;20037;-78
2024/01/06 05:47:48;;;;;;;7.38;5.28;;;;;;;3.47;100.00;100451.88;5031038;28;20080;-79
2024/01/06 05:50:17;;;;;;;8.27;5.43;;;;;;;3.47;100.00;100451.88;5030824;28;20029;-79
2024/01/06 05:52:43;;;;;;;8.73;5.35;;;;;;;3.43;100.00;100454.88;5030891;28;20029;-80
2024/01/06 05:55:09;;;;;;;8.05;5.63;;;;;;;3.39;100.00;100458.88;5033455;28;20032;-78
2024/01/06 05:57:34;;;;;;;8.77;6.18;;;;;;;3.39;100.00;100461.53;5016448;28;20042;-79
2024/01/06 06:00:00;;;;;;;8.48;5.57;;;;;;;3.43;100.00;100468.09;5034118;28;20041;-78
2024/01/06 06:02:25;;;;;;;10.40;6.20;;;;;;;3.37;100.00;100466.16;5034245;28;20024;-78
2024/01/06 06:04:52;;;;;;;8.27;5.25;;;;;;;3.40;100.00;100471.09;5034294;28;20105;-77
2024/01/06 06:07:17;;;;;;;9.73;6.35;;;;;;;3.34;100.00;100466.53;5034149;28;20028;-77
2024/01/06 06:09:43;;;;;;;9.90;6.60;;;;;;;3.34;100.00;100478.91;5034103;28;20454;-76
2024/01/06 06:12:08;;;;;;;10.02;5.93;;;;;;;3.28;100.00;100477.81;5034122;28;20024;-76
2024/01/06 06:14:33;;;;;;;8.40;5.35;;;;;;;3.33;100.00;100490.47;5016310;28;20466;-76
2024/01/06 06:16:59;;;;;;;8.77;6.05;;;;;;;3.32;100.00;100494.94;5033994;28;20176;-77
2024/01/06 06:19:24;;;;;;;6.22;4.70;;;;;;;3.31;100.00;100495.94;5015960;28;20092;-76
2024/01/06 06:21:49;;;;;;;7.05;4.80;;;;;;;3.31;100.00;100503.06;5016139;28;20049;-76
2024/01/06 06:24:15;;;;;;;6.50;4.78;;;;;;;3.21;100.00;100507.75;5016048;28;20021;-77
2024/01/06 06:26:40;;;;;;;7.13;5.35;;;;;;;3.18;100.00;100511.56;5015892;28;20029;-78
2024/01/06 06:29:05;;;;;;;8.05;5.57;;;;;;;3.21;100.00;100521.78;5016001;28;20091;-78
2024/01/06 06:31:31;;;;;;;9.85;6.20;;;;;;;3.15;100.00;100519.81;5015985;28;20029;-78
2024/01/06 06:33:56;;;;;;;9.13;5.95;;;;;;;3.20;100.00;100519.31;5033701;28;20025;-77
2024/01/06 06:36:21;;;;;;;10.13;6.85;;;;;;;3.17;100.00;100517.81;5033697;28;20030;-77
2024/01/06 06:38:47;;;;;;;12.77;7.18;;;;;;;3.20;100.00;100522.78;5033573;28;20300;-77
2024/01/06 06:41:12;;;;;;;11.07;6.32;;;;;;;3.19;100.00;100526.41;5033592;28;20027;-78
2024/01/06 06:43:37;;;;;;;9.43;6.40;;;;;;;3.14;100.00;100526.09;5015825;28;20030;-78
2024/01/06 06:46:03;;;;;;;11.13;6.35;;;;;;;3.21;100.00;100539.44;5033610;28;20030;-77
2024/01/06 06:48:29;;;;;;;10.25;7.05;;;;;;;3.17;100.00;100536.31;5033474;28;20030;-77
2024/01/06 06:50:54;;;;;;;11.00;7.13;;;;;;;3.16;100.00;100539.13;5033374;28;20029;-77
2024/01/06 06:53:20;;;;;;;9.15;6.20;;;;;;;3.17;100.00;100543.41;5033461;28;20130;-77
2024/01/06 06:55:45;;;;;;;11.32;6.72;;;;;;;3.13;100.00;100539.47;5033468;28;20034;-76
2024/01/06 06:58:10;;;;;;;12.82;6.75;;;;;;;3.13;100.00;100537.66;5015488;28;20112;-77
2024/01/06 07:00:36;;;;;;;12.43;7.68;;;;;;;3.14;100.00;100555.16;5033359;28;20397;-76
2024/01/06 07:03:02;;;;;;;12.10;7.53;;;;;;;3.10;100.00;100565.25;5033394;28;20549;-77
2024/01/06 07:05:28;;;;;;;10.90;7.40;;;;;;;3.12;100.00;100567.72;5032522;28;20104;-76
2024/01/06 07:07:53;;;;;;;11.48;6.53;;;;;;;3.10;100.00;100574.97;5033310;28;20367;-76
2024/01/06 07:10:18;;;;;;;13.13;7.95;;;;;;;3.10;100.00;100586.38;5033245;28;20045;-77
2024/01/06 07:12:43;;;;;;;16.58;8.80;;;;;;;3.08;100.00;100592.81;5033299;28;20443;-76
2024/01/06 07:15:10;;;;;;;13.48;8.07;;;;;;;3.04;100.00;100591.53;5033236;28;20029;-77
2024/01/06 07:17:36;;;;;;;12.68;8.15;;;;;;;3.01;100.00;100592.69;5015406;28;20056;-78
2024/01/06 07:20:02;;;;;;;12.88;8.70;;;;;;;2.99;100.00;100592.03;5033006;28;20465;-77
2024/01/06 07:22:27;;;;;;;16.17;8.07;;;;;;;2.96;100.00;100594.19;5033012;28;20385;-76
2024/01/06 07:24:52;;;;;;;13.10;7.95;;;;;;;2.99;100.00;100596.50;5032996;28;20136;-77
2024/01/06 07:27:18;;;;;;;13.55;8.93;;;;;;;3.00;100.00;100606.06;5015204;28;20503;-77
2024/01/06 07:29:43;;;;;;;14.25;8.82;;;;;;;3.03;100.00;100601.25;5033035;28;20037;-78
2024/01/06 07:32:09;;;;;;;13.68;8.20;;;;;;;3.03;100.00;100605.72;5032665;28;20116;-77
2024/01/06 07:34:34;;;;;;;14.02;8.75;;;;;;;2.98;100.00;100602.78;5032825;28;20018;-77
2024/01/06 07:37:00;;;;;;;16.45;8.07;;;;;;;3.01;100.00;100613.00;5032768;28;20025;-75
2024/01/06 07:39:25;;;;;;;13.50;7.88;;;;;;;3.00;100.00;100616.63;5032670;28;20029;-76
2024/01/06 07:41:51;;;;;;;14.55;8.73;;;;;;;2.92;100.00;100609.56;5032667;28;20382;-77
2024/01/06 07:44:22;;;;;;;15.88;9.38;;;;;;;2.90;100.00;100616.84;5032831;28;20478;-78
2024/01/06 07:46:47;;;;;;;12.18;8.13;;;;;;;2.88;100.00;100613.50;5032729;28;20025;-77
2024/01/06 07:49:13;;;;;;;14.32;7.80;;;;;;;2.91;100.00;100625.56;5032564;28;20426;-76
2024/01/06 07:51:38;;;;;;;16.10;9.02;;;;;;;2.84;100.00;100625.41;5032588;28;20079;-76
2024/01/06 07:54:05;;;;;;;16.10;9.18;;;;;;;2.84;100.00;100627.22;5014764;28;20116;-76
2024/01/06 07:56:30;;;;;;;15.73;9.45;;;;;;;2.85;100.00;100628.88;5032464;28;20393;-77
2024/01/06 07:58:56;;;;;;;13.38;8.00;;;;;;;2.89;100.00;100641.59;5014664;28;20034;-76
2024/01/06 08:01:22;;;;;;;13.38;8.90;;;;;;;2.87;100.00;100638.28;5032748;28;20037;-77
2024/01/06 08:03:48;;;;;;;16.90;9.32;;;;;;;2.87;100.00;100645.38;5032365;28;20084;-76
2024/01/06 08:06:13;;;;;;;15.60;8.75;;;;;;;2.88;100.00;100639.09;5032326;28;20061;-77
2024/01/06 08:08:38;;;;;;;16.73;9.10;;;;;;;2.91;100.00;100644.06;5014606;28;20029;-74
2024/01/06 08:11:04;;;;;;;18.23;8.93;;;;;;;2.92;100.00;100643.06;5032203;28;20029;-76
2024/01/06 08:13:29;;;;;;;14.38;7.95;;;;;;;3.02;100.00;100670.09;5032255;28;20033;-78
2024/01/06 08:15:54;;;;;;;13.88;8.57;;;;;;;3.03;100.00;100669.09;5014400;28;20029;-77
2024/01/06 08:18:21;;;;;;;17.13;9.57;;;;;;;2.98;100.00;100677.53;5014368;28;20119;-77
2024/01/06 08:20:46;;;;;;;18.42;10.02;;;;;;;3.00;100.00;100675.56;5014433;28;20105;-77
2024/01/06 08:23:12;;;;;;;17.08;9.68;;;;;;;3.01;100.00;100676.38;5032021;28;20091;-77
2024/01/06 08:25:37;;;;;;;16.25;9.23;;;;;;;2.97;100.00;100683.00;5031939;28;20036;-78
2024/01/06 08:28:03;;;;;;;17.33;10.52;;;;;;;2.90;100.00;100692.59;5031941;28;20026;-78
2024/01/06 08:30:28;;;;;;;16.08;10.10;;;;;;;2.83;100.00;100681.84;5013914;28;20117;-78
2024/01/06 08:32:54;;;;;;;11.80;7.35;;;;;;;2.90;100.00;100689.94;5031935;28;20363;-79
2024/01/06 08:35:20;;;;;;;17.35;9.70;;;;;;;2.86;100.00;100710.56;5014196;28;20033;-79
2024/01/06 08:37:45;;;;;;;18.60;9.77;;;;;;;2.83;100.00;100715.34;5031867;28;20488;-78
2024/01/06 08:40:12;;;;;;;17.92;10.38;;;;;;;2.77;100.00;100699.19;5031819;28;20032;-78
2024/01/06 08:42:37;;;;;;;17.33;9.40;;;;;;;2.79;100.00;100705.13;5031742;28;20088;-78
2024/01/06 08:45:03;;;;;;;16.48;8.82;;;;;;;2.84;100.00;100712.53;5014124;28;20393;-78
2024/01/06 08:47:29;;;;;;;14.90;9.30;;;;;;;2.79;100.00;100710.41;5014206;28;20450;-78
2024/01/06 08:49:54;;;;;;;12.55;8.70;;;;;;;2.87;100.00;100721.94;5013827;28;20037;-77
2024/01/06 08:52:19;;;;;;;14.30;8.43;;;;;;;2.86;100.00;100733.50;5013902;28;20071;-77
2024/01/06 08:54:45;;;;;;;15.00;8.63;;;;;;;2.86;100.00;100730.84;5031556;28;20140;-76
2024/01/06 08:57:10;;;;;;;18.00;9.52;;;;;;;2.88;100.00;100732.34;5031524;28;20112;-76
2024/01/06 08:59:35;;;;;;;14.90;7.97;;;;;;;2.83;100.00;100733.81;5031525;28;20141;-76
2024/01/06 09:02:01;;;;;;;12.95;7.95;;;;;;;2.98;100.00;100748.03;5031567;28;20175;-76
2024/01/06 09:04:26;;;;;;;17.30;9.50;;;;;;;2.87;100.00;100745.69;5013767;28;20044;-76
2024/01/06 09:06:52;;;;;;;17.40;9.75;;;;;;;2.87;100.00;100754.44;5014065;28;20108;-75
2024/01/06 09:09:17;;;;;;;15.77;9.00;;;;;;;2.94;100.00;100757.28;5031363;28;20136;-76
2024/01/06 09:11:44;;;;;;;17.20;9.27;;;;;;;2.98;100.00;100755.94;5013605;28;20478;-76
2024/01/06 09:14:10;;;;;;;16.50;9.90;;;;;;;2.97;100.00;100756.94;5031369;28;20029;-76
2024/01/06 09:16:36;;;;;;;18.05;8.98;;;;;;;3.01;100.00;100760.88;5031250;28;20080;-76
2024/01/06 09:19:02;;;;;;;14.05;9.20;;;;;;;3.04;100.00;100763.19;5030869;28;20036;-76
2024/01/06 09:21:27;;;;;;;15.70;9.77;;;;;;;3.01;100.00;100764.34;5031220;28;20034;-76
2024/01/06 09:23:52;;;;;;;15.77;9.77;;;;;;;2.97;100.00;100770.13;5031167;28;20029;-76
2024/01/06 09:26:18;;;;;;;15.57;9.27;;;;;;;2.97;100.00;100775.41;5031193;28;20040;-77
2024/01/06 09:28:43;;;;;;;13.57;7.53;;;;;;;3.06;100.00;100787.63;5031777;28;20417;-77
2024/01/06 09:31:09;;;;;;;14.93;9.85;;;;;;;3.06;100.00;100785.81;5035053;28;20029;-77
2024/01/06 09:33:34;;;;;;;14.88;9.60;;;;;;;3.04;100.00;100777.22;5034556;28;20021;-79
2024/01/06 09:36:00;;;;;;;21.80;9.52;;;;;;;3.14;100.00;100797.34;5034726;28;20469;-78
2024/01/06 09:38:25;;;;;;;12.00;7.05;;;;;;;3.12;100.00;100800.16;5034630;28;20441;-77
2024/01/06 09:40:53;;;;;;;13.52;9.13;;;;;;;3.11;100.00;100801.16;5016858;28;20032;-80
2024/01/06 09:43:19;;;;;;;14.32;9.07;;;;;;;3.15;100.00;100807.75;5034602;28;20029;-79
2024/01/06 09:45:53;;;;;;;13.48;8.30;;;;;;;3.31;100.00;100809.56;5016684;28;20031;-80
2024/01/06 09:48:20;;;;;;;11.75;7.80;;;;;;;3.23;100.00;100818.31;5034473;28;20037;-79
2024/01/06 09:50:47;;;;;;;11.38;8.35;;;;;;;3.24;100.00;100813.88;5016650;28;20068;-79
2024/01/06 09:53:13;;;;;;;12.95;9.05;;;;;;;3.23;100.00;100818.31;5016536;28;20075;-80
2024/01/06 09:55:39;;;;;;;14.27;9.32;;;;;;;3.34;100.00;100836.47;5034191;28;20026;-81
2024/01/06 09:58:06;;;;;;;18.05;11.13;;;;;;;3.30;100.00;100835.16;5034286;28;20026;-79
2024/01/06 10:00:31;;;;;;;11.10;7.88;;;;;;;3.32;100.00;100825.25;5016454;28;20543;-78
2024/01/06 10:02:57;;;;;;;13.30;9.38;;;;;;;3.28;100.00;100837.13;5034224;28;20029;-78
2024/01/06 10:05:23;;;;;;;18.13;13.88;;;;;;;3.25;100.00;100831.38;5034156;28;20025;-79
2024/01/06 10:07:48;;;;;;;11.82;7.20;;;;;;;3.39;100.00;100841.25;5016291;28;20075;-78
2024/01/06 10:10:14;;;;;;;15.68;7.40;;;;;;;3.45;100.00;100845.84;5034017;28;20025;-80
2024/01/06 10:12:41;;;;;;;20.92;17.77;;;;;;;3.37;100.00;100852.00;5033952;28;20029;-79
2024/01/06 10:15:11;;;;;;;19.60;15.77;;;;;;;3.28;100.00;100846.88;5033943;28;20517;-79
2024/01/06 10:17:41;;;;;;;16.30;13.20;;;;;;;3.37;100.00;100865.19;5033837;28;20113;-79
2024/01/06 10:20:08;;;;;;;14.60;11.07;;;;;;;3.35;100.00;100859.25;5016042;28;20088;-79
2024/01/06 10:22:36;;;;;;;16.83;11.48;;;;;;;3.46;100.00;100857.25;5033786;28;20551;-77
2024/01/06 10:25:05;;;;;;;18.02;12.30;;;;;;;3.42;100.00;100864.69;5033537;28;20052;-79
2024/01/06 10:27:33;;;;;;;15.15;10.73;;;;;;;3.40;100.00;100856.13;4999820;28;20072;-76
2024/01/06 10:29:58;;;;;;;16.25;10.75;;;;;;;3.46;100.00;100865.19;5033739;28;20112;-75
2024/01/06 10:32:28;;;;;;;14.05;9.43;;;;;;;3.36;100.00;100855.63;5033948;28;20112;-74
2024/01/06 10:34:55;;;;;;;8.70;5.93;;;;;;;3.46;100.00;100875.75;5016742;28;20141;-77
2024/01/06 10:37:21;;;;;;;12.25;7.32;;;;;;;3.43;100.00;100861.88;5015877;28;20095;-76
2024/01/06 10:39:50;;;;;;;15.43;9.13;;;;;;;3.48;100.00;100863.22;5015096;28;20029;-79
2024/01/06 10:42:16;;;;;;;12.27;8.25;;;;;;;3.54;100.00;100873.94;5014025;28;20038;-78
2024/01/06 10:44:42;;;;;;;13.27;10.32;;;;;;;3.42;100.00;100860.22;5033294;28;20029;-78
2024/01/06 10:47:08;;;;;;;16.42;11.65;;;;;;;3.43;100.00;100871.63;5033658;28;20029;-76
2024/01/06 10:49:35;;;;;;;13.88;9.05;;;;;;;3.42;100.00;100878.72;5015749;28;20029;-77
2024/01/06 10:52:01;;;;;;;10.35;7.65;;;;;;;3.43;100.00;100883.03;5033513;28;20061;-76
2024/01/06 10:54:28;;;;;;;12.82;8.57;;;;;;;3.42;100.00;100878.72;5033298;28;20025;-76
2024/01/06 10:56:53;;;;;;;13.52;8.70;;;;;;;3.38;100.00;100884.53;5015555;28;20029;-76
2024/01/06 10:59:22;;;;;;;14.55;11.43;;;;;;;3.36;100.00;100881.22;5033252;28;20474;-75
2024/01/06 11:01:50;;;;;;;11.38;8.20;;;;;;;3.34;100.00;100865.53;5033367;28;20037;-77
2024/01/06 11:04:16;;;;;;;12.55;8.32;;;;;;;3.41;100.00;100874.44;5033282;28;20025;-76
2024/01/06 11:06:43;;;;;;;11.40;7.63;;;;;;;3.48;100.00;100890.47;5033156;28;20029;-76
2024/01/06 11:09:24;;;;;;;12.30;8.35;;;;;;;3.48;100.00;100887.84;5033231;28;20088;-76